Time;durP1;ratioP1;P1;durP2;ratioP2;P2;SDS_P1;SDS_P2;PMS_P1;PMS_P2;Temp;Humidity;BMP_temperature;BMP_pressure;BME280_temperature;BME280_humidity;BME280_pressure;Samples;Min_cycle;Max_cycle;Signal;HPM_P1;HPM_P2
2020/12/31 00:01:24;;;;;;;13.35;6.62;;;;;;;10.22;77.44;100061.44;1750731;80;21454;-43
2020/12/31 00:03:52;;;;;;;10.18;6.78;;;;;;;10.22;77.52;100057.44;1725791;81;21126;-43
2020/12/31 00:06:20;;;;;;;11.88;6.58;;;;;;;10.21;77.53;100057.07;1751921;80;21160;-42
2020/12/31 00:08:47;;;;;;;12.00;7.37;;;;;;;10.21;77.57;100057.92;1751608;80;21170;-45
2020/12/31 00:11:15;;;;;;;15.00;8.15;;;;;;;10.21;77.62;100055.73;1751875;80;21154;-40
2020/12/31 00:13:43;;;;;;;13.45;7.40;;;;;;;10.22;77.59;100055.62;1756179;80;21137;-39
2020/12/31 00:16:10;;;;;;;10.40;6.92;;;;;;;10.21;77.63;100065.91;1721471;81;21194;-41
2020/12/31 00:18:38;;;;;;;12.47;6.83;;;;;;;10.21;77.67;100060.59;1742020;80;21155;-42
2020/12/31 00:21:06;;;;;;;12.07;6.80;;;;;;;10.22;77.69;100062.77;1716240;81;21186;-41
2020/12/31 00:23:33;;;;;;;18.95;8.00;;;;;;;10.24;77.62;100069.70;1749869;80;21130;-43
2020/12/31 00:26:01;;;;;;;11.60;7.05;;;;;;;10.26;77.59;100067.81;1750492;80;21477;-42
2020/12/31 00:28:28;;;;;;;11.40;7.20;;;;;;;10.26;77.53;100071.80;1756260;80;21469;-43
2020/12/31 00:30:55;;;;;;;13.15;7.12;;;;;;;10.25;77.35;100067.41;1746059;80;21156;-42
2020/12/31 00:33:23;;;;;;;12.47;8.20;;;;;;;10.24;77.39;100065.71;1738637;80;21141;-42
2020/12/31 00:35:55;;;;;;;16.05;8.35;;;;;;;10.26;77.11;100065.62;1742926;80;21611;-42
2020/12/31 00:38:22;;;;;;;15.55;7.45;;;;;;;10.22;76.99;100059.62;1749711;80;21457;-41
2020/12/31 00:40:52;;;;;;;16.77;7.78;;;;;;;10.19;76.90;100062.48;1748300;80;21141;-42
2020/12/31 00:43:20;;;;;;;16.65;7.90;;;;;;;10.16;76.82;100062.20;1750497;80;21128;-40
2020/12/31 00:45:48;;;;;;;11.15;6.92;;;;;;;10.15;76.78;100059.62;1750737;80;21159;-42
2020/12/31 00:48:16;;;;;;;9.70;6.87;;;;;;;10.15;76.89;100056.51;1745105;80;21107;-42
2020/12/31 00:50:44;;;;;;;12.60;7.97;;;;;;;10.19;76.75;100062.48;1748458;80;21186;-42
2020/12/31 00:53:13;;;;;;;13.43;7.65;;;;;;;10.16;76.66;100053.36;1749014;80;21131;-42
2020/12/31 00:55:41;;;;;;;13.43;7.12;;;;;;;10.15;76.58;100060.95;1724306;81;21126;-42
2020/12/31 00:58:10;;;;;;;11.30;7.28;;;;;;;10.12;76.55;100057.16;1694491;81;21140;-40
2020/12/31 01:00:38;;;;;;;10.75;7.45;;;;;;;10.12;76.55;100058.49;1718071;81;21153;-42
2020/12/31 01:03:06;;;;;;;13.30;7.92;;;;;;;10.10;76.56;100063.91;1712630;81;21157;-40
2020/12/31 01:05:34;;;;;;;12.43;7.40;;;;;;;10.08;76.51;100067.62;1716000;82;21114;-43
2020/12/31 01:08:02;;;;;;;15.65;7.15;;;;;;;10.08;76.57;100064.95;1720619;81;21176;-40
2020/12/31 01:10:30;;;;;;;15.58;7.97;;;;;;;10.07;76.62;100066.77;1688451;83;21156;-41
2020/12/31 01:12:57;;;;;;;11.63;7.72;;;;;;;10.09;76.65;100061.36;1718335;81;21615;-39
2020/12/31 01:15:25;;;;;;;13.08;7.50;;;;;;;10.10;76.67;100059.91;1721805;81;21584;-43
2020/12/31 01:17:52;;;;;;;11.08;6.40;;;;;;;10.11;76.74;100061.64;1677527;83;21420;-43
2020/12/31 01:20:20;;;;;;;20.17;8.48;;;;;;;10.13;76.78;100062.41;1707606;82;21145;-41
2020/12/31 01:22:47;;;;;;;14.70;6.72;;;;;;;10.14;76.79;100066.77;1709514;82;21153;-42
2020/12/31 01:25:15;;;;;;;13.93;6.92;;;;;;;10.16;76.77;100064.02;1712209;82;21165;-43
2020/12/31 01:27:42;;;;;;;9.95;6.90;;;;;;;10.14;76.83;100061.44;1715090;82;21168;-45
2020/12/31 01:30:10;;;;;;;10.28;6.90;;;;;;;10.17;76.81;100067.90;1709389;82;21117;-45
2020/12/31 01:32:38;;;;;;;16.70;8.00;;;;;;;10.23;76.76;100069.80;1712072;82;21145;-46
2020/12/31 01:35:06;;;;;;;17.00;8.03;;;;;;;10.26;76.74;100069.14;1708334;82;21152;-44
2020/12/31 01:37:33;;;;;;;12.80;7.62;;;;;;;10.29;76.71;100063.64;1712706;82;21155;-43
2020/12/31 01:40:01;;;;;;;10.93;7.92;;;;;;;10.33;76.67;100064.28;1709472;82;21597;-43
2020/12/31 01:42:29;;;;;;;17.42;8.73;;;;;;;10.30;76.63;100062.67;1713326;82;21867;-44
2020/12/31 01:44:56;;;;;;;15.75;8.45;;;;;;;10.27;76.63;100062.84;1711351;82;22230;-41
2020/12/31 01:47:24;;;;;;;14.25;9.15;;;;;;;10.28;76.64;100063.73;1713557;82;21158;-46
2020/12/31 01:49:51;;;;;;;13.00;7.75;;;;;;;10.25;76.70;100055.91;1714470;82;21180;-42
2020/12/31 01:52:19;;;;;;;18.87;8.50;;;;;;;10.26;76.76;100058.97;1667308;82;21191;-43
2020/12/31 01:54:49;;;;;;;14.73;8.48;;;;;;;10.26;76.73;100060.30;1719068;81;22136;-48
2020/12/31 01:57:18;;;;;;;15.80;9.05;;;;;;;10.26;76.72;100058.48;1726779;80;21129;-43
2020/12/31 01:59:46;;;;;;;17.62;9.00;;;;;;;10.28;76.69;100057.06;1735598;81;21168;-46
2020/12/31 02:02:13;;;;;;;16.15;8.00;;;;;;;10.30;76.66;100055.16;1736504;81;21107;-46
2020/12/31 02:04:41;;;;;;;24.92;10.25;;;;;;;10.27;76.62;100056.67;1734784;81;21168;-46
2020/12/31 02:07:09;;;;;;;17.52;8.43;;;;;;;10.22;76.77;100058.28;1732687;81;21184;-50
2020/12/31 02:09:37;;;;;;;11.15;8.28;;;;;;;10.20;76.91;100053.52;1733576;81;21196;-47
2020/12/31 02:12:05;;;;;;;16.97;8.63;;;;;;;10.21;76.96;100057.07;1736739;81;21148;-46
2020/12/31 02:14:32;;;;;;;16.75;8.65;;;;;;;10.22;77.04;100048.11;1734988;81;21164;-47
2020/12/31 02:17:00;;;;;;;13.45;7.53;;;;;;;10.22;77.03;100038.78;1736297;81;21663;-47
2020/12/31 02:19:28;;;;;;;15.45;7.58;;;;;;;10.19;77.11;100046.02;1733702;81;21162;-46
2020/12/31 02:21:56;;;;;;;12.95;8.18;;;;;;;10.18;77.14;100041.65;1730823;81;21152;-46
2020/12/31 02:24:23;;;;;;;18.25;10.03;;;;;;;10.18;77.23;100040.32;1736129;81;21161;-47
2020/12/31 02:26:51;;;;;;;20.08;9.80;;;;;;;10.21;77.45;100032.61;1722029;81;21494;-43
2020/12/31 02:29:18;;;;;;;17.10;10.70;;;;;;;10.22;77.60;100032.12;1733388;81;21761;-44
2020/12/31 02:31:47;;;;;;;20.75;11.20;;;;;;;10.23;77.79;100032.48;1739956;81;22101;-44
2020/12/31 02:34:15;;;;;;;18.80;10.65;;;;;;;10.23;77.94;100029.38;1733297;81;21174;-45
2020/12/31 02:36:42;;;;;;;17.40;10.13;;;;;;;10.23;78.08;100032.04;1727250;81;21441;-43
2020/12/31 02:39:12;;;;;;;16.15;11.38;;;;;;;10.21;78.20;100033.94;1732580;81;21125;-45
2020/12/31 02:41:40;;;;;;;21.30;12.28;;;;;;;10.22;78.29;100033.45;1732994;81;21593;-44
2020/12/31 02:44:08;;;;;;;18.65;9.78;;;;;;;10.22;78.35;100028.97;1733512;81;21163;-46
2020/12/31 02:46:36;;;;;;;17.95;9.10;;;;;;;10.25;78.38;100026.59;1732467;81;21184;-43
2020/12/31 02:49:04;;;;;;;19.30;10.32;;;;;;;10.25;78.44;100026.59;1732701;81;21576;-44
2020/12/31 02:51:32;;;;;;;17.25;9.03;;;;;;;10.23;78.51;100020.50;1729995;81;21164;-48
2020/12/31 02:53:59;;;;;;;16.75;9.60;;;;;;;10.22;78.50;100013.47;1734635;81;21172;-42
2020/12/31 02:56:27;;;;;;;16.17;9.98;;;;;;;10.23;78.44;100017.38;1728349;81;21212;-45
2020/12/31 02:58:54;;;;;;;18.23;9.23;;;;;;;10.23;78.35;100009.38;1722383;81;21201;-44
2020/12/31 03:01:22;;;;;;;13.95;8.55;;;;;;;10.21;78.33;100009.11;1719784;81;21161;-46
2020/12/31 03:03:50;;;;;;;15.45;9.83;;;;;;;10.23;78.44;100009.38;1753025;80;21980;-43
2020/12/31 03:06:19;;;;;;;17.20;9.18;;;;;;;10.28;78.41;100005.09;1725409;81;21144;-45
2020/12/31 03:08:47;;;;;;;14.95;9.30;;;;;;;10.33;78.39;100004.32;1754629;80;21158;-44
2020/12/31 03:11:20;;;;;;;19.10;8.88;;;;;;;10.37;78.33;100001.36;1751061;80;21135;-47
2020/12/31 03:13:48;;;;;;;17.60;9.53;;;;;;;10.40;78.30;100004.30;1753722;80;21880;-43
2020/12/31 03:16:17;;;;;;;15.95;8.73;;;;;;;10.44;78.18;100003.65;1752367;80;21118;-44
2020/12/31 03:18:46;;;;;;;18.45;9.15;;;;;;;10.46;78.06;100000.37;1750443;80;21168;-45
2020/12/31 03:21:14;;;;;;;18.62;9.55;;;;;;;10.41;78.11;99998.04;1756412;80;21155;-45
2020/12/31 03:23:42;;;;;;;18.57;10.03;;;;;;;10.36;78.11;100002.33;1756709;80;21151;-45
2020/12/31 03:26:09;;;;;;;16.95;9.15;;;;;;;10.35;78.12;99998.42;1754894;80;21126;-55
2020/12/31 03:28:37;;;;;;;16.45;9.68;;;;;;;10.36;78.11;99994.82;1750733;80;21145;-45
2020/12/31 03:31:05;;;;;;;15.85;9.15;;;;;;;10.36;78.08;99993.48;1751035;80;21148;-45
2020/12/31 03:33:32;;;;;;;14.75;8.60;;;;;;;10.33;78.09;99991.88;1754738;80;21149;-42
2020/12/31 03:36:00;;;;;;;14.05;9.75;;;;;;;10.32;78.12;99993.30;1750926;80;21885;-46
2020/12/31 03:38:27;;;;;;;14.33;8.25;;;;;;;10.32;78.12;99995.48;1753095;80;21176;-44
2020/12/31 03:40:55;;;;;;;17.07;10.43;;;;;;;10.33;78.10;99991.00;1754950;80;21158;-46
2020/12/31 03:43:23;;;;;;;16.82;9.58;;;;;;;10.31;78.08;99984.45;1753816;80;21133;-46
2020/12/31 03:45:50;;;;;;;17.60;10.13;;;;;;;10.31;78.03;99988.94;1751025;80;21141;-46
2020/12/31 03:48:18;;;;;;;19.15;9.80;;;;;;;10.28;78.00;99979.78;1755285;80;21157;-43
2020/12/31 03:50:45;;;;;;;17.27;9.15;;;;;;;10.26;77.90;99979.02;1746711;80;21170;-43
2020/12/31 03:53:12;;;;;;;14.33;9.18;;;;;;;10.24;77.79;99979.11;1755736;80;21679;-42
2020/12/31 03:55:40;;;;;;;17.40;10.68;;;;;;;10.21;77.69;99973.98;1753969;80;21582;-45
2020/12/31 03:58:09;;;;;;;14.40;8.60;;;;;;;10.19;77.71;99978.06;1757087;80;22108;-45
2020/12/31 04:00:36;;;;;;;16.67;9.13;;;;;;;10.17;77.61;99976.45;1752165;80;21928;-45
2020/12/31 04:03:04;;;;;;;13.60;8.53;;;;;;;10.16;77.40;99986.27;1721730;81;21204;-44
2020/12/31 04:05:31;;;;;;;15.28;7.97;;;;;;;10.12;77.37;99978.08;1746707;80;21168;-46
2020/12/31 04:07:59;;;;;;;12.98;8.38;;;;;;;10.10;77.25;99977.80;1757040;80;21154;-45
2020/12/31 04:10:26;;;;;;;17.65;8.28;;;;;;;10.07;77.16;99977.52;1715667;81;21135;-46
2020/12/31 04:12:53;;;;;;;13.53;8.98;;;;;;;10.06;77.06;99977.16;1745295;80;21150;-47
2020/12/31 04:15:21;;;;;;;15.48;8.45;;;;;;;10.04;76.78;99978.20;1750489;80;22066;-45
2020/12/31 04:17:49;;;;;;;14.10;9.13;;;;;;;10.01;76.75;99981.92;1745080;80;21648;-45
2020/12/31 04:20:16;;;;;;;13.62;8.38;;;;;;;10.02;76.73;99985.44;1751427;80;21150;-46
2020/12/31 04:22:44;;;;;;;13.40;8.30;;;;;;;10.03;76.61;99988.47;1753868;80;21277;-44
2020/12/31 04:25:12;;;;;;;13.85;8.95;;;;;;;10.04;76.54;99992.38;1731324;81;21609;-46
2020/12/31 04:27:40;;;;;;;13.93;8.18;;;;;;;10.06;76.44;99997.62;1759660;80;21601;-44
2020/12/31 04:30:08;;;;;;;10.70;7.10;;;;;;;10.10;76.34;99999.11;1748468;80;21673;-40
2020/12/31 04:32:35;;;;;;;13.32;8.13;;;;;;;10.12;76.08;99999.39;1698601;80;21492;-45
2020/12/31 04:35:04;;;;;;;11.73;6.92;;;;;;;10.12;76.02;100002.06;1752951;80;21159;-45
2020/12/31 04:37:31;;;;;;;14.23;7.65;;;;;;;10.12;75.95;100001.20;1754607;80;21174;-44
2020/12/31 04:39:59;;;;;;;11.55;7.47;;;;;;;10.14;75.74;100004.16;1750816;80;21157;-45
2020/12/31 04:42:36;;;;;;;10.95;7.47;;;;;;;10.14;75.67;100010.81;1755589;80;21139;-45
2020/12/31 04:45:04;;;;;;;13.72;7.05;;;;;;;10.13;75.64;100005.12;1750867;80;21173;-42
2020/12/31 04:47:42;;;;;;;13.60;7.37;;;;;;;10.16;75.50;100013.39;1756992;80;21894;-39
2020/12/31 04:50:09;;;;;;;14.78;9.00;;;;;;;10.14;75.43;100024.14;1753145;80;21145;-43
2020/12/31 04:52:36;;;;;;;11.95;7.80;;;;;;;10.14;75.43;100019.29;1754608;80;21139;-43
2020/12/31 04:55:04;;;;;;;13.90;7.10;;;;;;;10.14;75.41;100031.28;1756647;80;21166;-42
2020/12/31 04:57:32;;;;;;;13.72;7.00;;;;;;;10.14;75.39;100032.12;1725897;81;21131;-43
2020/12/31 05:00:01;;;;;;;13.28;7.60;;;;;;;10.17;75.33;100022.60;1749688;80;21159;-43
2020/12/31 05:02:29;;;;;;;11.22;6.75;;;;;;;10.16;75.30;100023.56;1726439;81;21287;-43
2020/12/31 05:05:00;;;;;;;13.10;7.70;;;;;;;10.17;75.26;100032.41;1757347;80;21154;-41
2020/12/31 05:07:29;;;;;;;14.93;7.28;;;;;;;10.17;75.26;100038.59;1755476;80;21476;-41
2020/12/31 05:10:11;;;;;;;11.03;7.58;;;;;;;10.17;75.29;100041.73;1722663;81;21572;-41
2020/12/31 05:12:38;;;;;;;11.05;6.90;;;;;;;10.17;75.32;100041.25;1728444;81;21165;-39
2020/12/31 05:15:06;;;;;;;12.95;7.75;;;;;;;10.19;75.33;100040.69;1728637;81;21164;-41
2020/12/31 05:17:34;;;;;;;11.95;7.50;;;;;;;10.22;75.30;100044.11;1731686;81;21128;-41
2020/12/31 05:20:14;;;;;;;12.75;7.72;;;;;;;10.23;75.30;100041.36;1725207;81;21157;-40
2020/12/31 05:22:42;;;;;;;13.70;8.60;;;;;;;10.23;75.31;100046.69;1729754;81;21570;-43
2020/12/31 05:25:10;;;;;;;15.58;7.70;;;;;;;10.24;75.39;100047.55;1730081;81;21580;-40
2020/12/31 05:27:37;;;;;;;13.65;7.45;;;;;;;10.23;75.48;100047.14;1726643;81;21164;-43
2020/12/31 05:30:07;;;;;;;13.35;8.33;;;;;;;10.23;75.51;100053.80;1729472;81;21153;-40
2020/12/31 05:32:40;;;;;;;16.65;10.05;;;;;;;10.21;75.64;100055.25;1726765;81;21194;-43
2020/12/31 05:35:18;;;;;;;11.65;7.40;;;;;;;10.19;75.75;100054.00;1728540;81;21140;-43
2020/12/31 05:37:45;;;;;;;14.20;8.55;;;;;;;10.18;75.85;100053.64;1731869;81;21145;-44
2020/12/31 05:40:13;;;;;;;13.83;8.68;;;;;;;10.15;75.97;100053.84;1729768;81;21603;-44
2020/12/31 05:42:43;;;;;;;13.98;8.08;;;;;;;10.13;76.08;100053.08;1724630;81;21589;-42
2020/12/31 05:45:14;;;;;;;13.25;7.85;;;;;;;10.13;76.15;100066.40;1757162;80;21654;-43
2020/12/31 05:47:51;;;;;;;14.80;8.20;;;;;;;10.12;76.20;100063.34;1755653;80;21665;-46
2020/12/31 05:50:23;;;;;;;16.93;8.50;;;;;;;10.16;76.59;100070.20;1722173;81;21660;-38
2020/12/31 05:52:53;;;;;;;17.35;9.45;;;;;;;10.23;76.84;100065.80;1727376;81;21820;-42
2020/12/31 05:55:22;;;;;;;13.58;8.18;;;;;;;10.25;76.70;100074.07;1755099;80;21522;-45
2020/12/31 05:57:55;;;;;;;15.23;8.70;;;;;;;10.26;76.53;100069.14;1754697;80;21143;-42
2020/12/31 06:00:30;;;;;;;17.27;9.35;;;;;;;10.26;76.42;100077.14;1750656;80;21149;-45
2020/12/31 06:02:59;;;;;;;14.18;8.68;;;;;;;10.23;76.36;100069.34;1753593;80;21587;-45
2020/12/31 06:05:28;;;;;;;21.68;9.20;;;;;;;10.24;76.37;100071.04;1749912;80;21135;-45
2020/12/31 06:07:58;;;;;;;17.77;8.73;;;;;;;10.22;76.37;100072.09;1757376;80;21147;-42
2020/12/31 06:10:32;;;;;;;13.28;9.23;;;;;;;10.20;76.43;100077.50;1754608;80;21131;-42
2020/12/31 06:13:05;;;;;;;17.17;9.33;;;;;;;10.22;76.43;100075.61;1758632;80;21151;-43
2020/12/31 06:15:34;;;;;;;15.58;9.60;;;;;;;10.23;76.41;100069.34;1758044;80;22073;-46
2020/12/31 06:18:04;;;;;;;19.15;9.33;;;;;;;10.22;76.39;100079.60;1751265;80;21135;-43
2020/12/31 06:20:33;;;;;;;14.75;9.43;;;;;;;10.21;76.42;100081.90;1750556;80;21179;-43
2020/12/31 06:23:07;;;;;;;15.23;8.98;;;;;;;10.21;76.44;100079.23;1759505;80;21146;-42
2020/12/31 06:25:45;;;;;;;14.85;8.78;;;;;;;10.22;76.42;100080.09;1751224;80;21605;-42
2020/12/31 06:28:21;;;;;;;11.68;8.48;;;;;;;10.24;76.42;100074.19;1716361;81;21899;-44
2020/12/31 06:30:51;;;;;;;15.60;8.80;;;;;;;10.23;76.42;100074.67;1722808;81;22153;-44
2020/12/31 06:33:34;;;;;;;21.48;11.68;;;;;;;10.23;76.37;100070.67;1725143;81;21711;-42
2020/12/31 06:36:03;;;;;;;14.58;8.30;;;;;;;10.23;76.38;100069.80;1700873;81;21641;-43
2020/12/31 06:38:42;;;;;;;17.73;10.15;;;;;;;10.23;76.39;100068.46;1729083;81;21456;-45
2020/12/31 06:41:37;;;;;;;15.38;8.98;;;;;;;10.23;76.36;100065.80;1744088;80;21157;-44
2020/12/31 06:44:13;;;;;;;19.05;9.98;;;;;;;10.25;76.77;100072.74;1747231;80;21110;-42
2020/12/31 06:46:48;;;;;;;14.68;7.95;;;;;;;10.33;76.66;100085.61;1746006;80;21122;-41
2020/12/31 06:49:16;;;;;;;15.72;9.50;;;;;;;10.38;76.46;100096.38;1727022;81;21156;-44
2020/12/31 06:51:44;;;;;;;13.88;8.45;;;;;;;10.43;76.20;100096.55;1731480;81;21149;-42
2020/12/31 06:54:11;;;;;;;15.72;8.95;;;;;;;10.42;76.06;100096.18;1738286;81;21676;-45
2020/12/31 06:56:47;;;;;;;14.05;8.50;;;;;;;10.40;75.99;100097.59;1735416;81;21129;-44
2020/12/31 06:59:32;;;;;;;15.00;9.53;;;;;;;10.38;75.93;100093.72;1739249;81;21191;-39
2020/12/31 07:02:03;;;;;;;17.42;10.20;;;;;;;10.39;75.87;100095.90;1737348;81;21135;-43
2020/12/31 07:04:34;;;;;;;13.10;9.10;;;;;;;10.42;76.14;100096.18;1733619;81;22277;-40
2020/12/31 07:07:23;;;;;;;;;;;;;;;10.47;76.25;100093.59;1743289;81;21450;-40
2020/12/31 07:10:01;;;;;;;19.65;9.50;;;;;;;10.55;76.10;100095.28;1741891;81;20547;-43
2020/12/31 07:15:19;;;;;;;20.05;10.60;;;;;;;10.72;75.74;100103.53;1758366;79;23147;-43
2020/12/31 07:17:47;;;;;;;13.98;9.13;;;;;;;10.67;75.58;100102.13;1743209;80;21497;-42
2020/12/31 07:20:18;;;;;;;18.77;10.63;;;;;;;10.64;75.56;100104.52;1742946;80;21574;-43
2020/12/31 07:22:51;;;;;;;18.42;11.43;;;;;;;10.59;75.71;100107.47;1741704;80;21460;-42
2020/12/31 07:25:19;;;;;;;17.00;9.15;;;;;;;10.55;75.74;100108.61;1735038;80;21617;-43
2020/12/31 07:27:50;;;;;;;19.25;10.28;;;;;;;10.51;75.87;100110.27;1736757;80;21138;-43
2020/12/31 07:30:22;;;;;;;16.65;9.60;;;;;;;10.46;76.00;100104.34;1738937;80;21142;-45
2020/12/31 07:33:00;;;;;;;18.87;9.53;;;;;;;10.42;76.13;100101.03;1725338;80;21149;-42
2020/12/31 07:35:38;;;;;;;20.82;10.25;;;;;;;10.39;76.25;100101.23;1711092;82;21153;-41
2020/12/31 07:38:20;;;;;;;15.80;9.73;;;;;;;10.38;76.37;100111.49;1710713;82;21157;-42
2020/12/31 07:40:53;;;;;;;16.67;10.35;;;;;;;10.40;76.38;100111.77;1712441;82;21137;-41
2020/12/31 07:43:26;;;;;;;19.55;11.25;;;;;;;10.39;76.41;100115.41;1708282;82;21482;-44
2020/12/31 07:46:00;;;;;;;18.02;10.35;;;;;;;10.37;76.51;100120.45;1713710;82;21601;-44
2020/12/31 07:48:28;;;;;;;15.95;9.73;;;;;;;10.34;76.62;100128.17;1715440;82;21534;-42
2020/12/31 07:51:05;;;;;;;20.65;10.55;;;;;;;10.34;76.71;100121.98;1687489;83;21542;-40
2020/12/31 07:53:35;;;;;;;19.73;10.65;;;;;;;10.33;76.79;100128.25;1687090;83;21121;-42
2020/12/31 07:56:02;;;;;;;17.60;11.33;;;;;;;10.32;76.86;100137.22;1676013;84;21169;-42
2020/12/31 07:58:32;;;;;;;19.95;10.70;;;;;;;10.27;76.98;100132.62;1663587;84;21572;-45
2020/12/31 08:01:04;;;;;;;20.60;10.65;;;;;;;10.23;77.14;100127.97;1680860;84;21149;-44
2020/12/31 08:03:32;;;;;;;17.50;9.80;;;;;;;10.21;77.26;100133.86;1671726;84;21517;-42
2020/12/31 08:06:07;;;;;;;21.93;10.10;;;;;;;10.20;77.34;100130.80;1678165;83;21189;-40
2020/12/31 08:08:34;;;;;;;19.00;10.05;;;;;;;10.18;77.45;100132.25;1683019;83;21205;-40
2020/12/31 08:11:10;;;;;;;16.35;9.98;;;;;;;10.21;77.47;100127.69;1681716;83;21150;-44
2020/12/31 08:13:38;;;;;;;13.22;9.65;;;;;;;10.20;77.52;100126.80;1683914;83;21525;-42
2020/12/31 08:16:07;;;;;;;17.80;10.15;;;;;;;10.18;77.63;100131.39;1682886;84;21597;-44
2020/12/31 08:18:35;;;;;;;16.85;10.28;;;;;;;10.19;77.72;100133.09;1670879;84;21621;-44
2020/12/31 08:21:05;;;;;;;14.00;10.65;;;;;;;10.22;77.76;100130.72;1657321;85;21153;-42
2020/12/31 08:23:38;;;;;;;14.55;9.03;;;;;;;10.22;77.83;100132.90;1684128;84;21320;-43
2020/12/31 08:26:09;;;;;;;17.07;9.28;;;;;;;10.22;77.88;100138.23;1680517;84;21160;-41
2020/12/31 08:28:36;;;;;;;;;;;;;;;10.23;77.91;100139.95;1677653;84;21173;-43
2020/12/31 08:31:15;;;;;;;16.67;10.78;;;;;;;10.28;77.92;100139.67;1673845;84;20196;-44
2020/12/31 08:33:43;;;;;;;24.65;10.98;;;;;;;10.27;77.90;100139.28;1656481;85;21179;-45
2020/12/31 08:36:11;;;;;;;16.97;10.38;;;;;;;10.25;77.99;100132.70;1672049;84;21196;-43
2020/12/31 08:38:39;;;;;;;24.87;11.05;;;;;;;10.26;78.03;100144.23;1652248;85;21172;-43
2020/12/31 08:41:08;;;;;;;16.93;10.20;;;;;;;10.25;78.06;100135.84;1653502;85;21167;-44
2020/12/31 08:43:37;;;;;;;17.52;10.72;;;;;;;10.25;78.12;100133.18;1658459;85;21171;-44
2020/12/31 08:46:08;;;;;;;14.57;10.73;;;;;;;10.27;78.17;100133.95;1649853;85;21617;-42
2020/12/31 08:48:36;;;;;;;22.13;10.50;;;;;;;10.28;78.22;100130.35;1653888;85;21163;-43
2020/12/31 08:51:13;;;;;;;16.97;11.55;;;;;;;10.29;78.21;100137.41;1658860;85;21139;-41
2020/12/31 08:53:58;;;;;;;16.23;10.18;;;;;;;10.29;78.12;100131.59;1659718;85;21626;-41
2020/12/31 08:56:33;;;;;;;15.88;9.53;;;;;;;10.30;78.06;100131.97;1675169;84;21176;-43
2020/12/31 08:59:15;;;;;;;17.00;10.15;;;;;;;10.32;77.97;100134.55;1674519;84;21189;-44
2020/12/31 09:01:47;;;;;;;19.00;10.20;;;;;;;10.33;77.90;100129.59;1645282;85;21189;-44
2020/12/31 09:04:16;;;;;;;18.50;9.98;;;;;;;10.31;77.86;100132.37;1673678;84;21161;-44
2020/12/31 09:06:47;;;;;;;21.90;11.55;;;;;;;10.29;77.86;100138.75;1679582;84;21176;-44
2020/12/31 09:09:28;;;;;;;18.75;10.82;;;;;;;10.28;77.89;100134.34;1684682;84;21300;-41
2020/12/31 09:12:03;;;;;;;;;;;;;;;10.30;77.88;100137.30;1669979;84;21181;-42
2020/12/31 09:14:32;;;;;;;18.30;10.82;;;;;;;10.32;77.85;100138.06;1684777;84;20282;-41
2020/12/31 09:16:59;;;;;;;17.50;9.65;;;;;;;10.31;77.81;100134.18;1679983;84;21141;-41
2020/12/31 09:19:27;;;;;;;18.27;10.25;;;;;;;10.27;77.94;100133.95;1671126;84;21177;-40
2020/12/31 09:21:55;;;;;;;19.32;9.20;;;;;;;10.28;77.95;100133.02;1679575;84;21613;-43
2020/12/31 09:24:23;;;;;;;16.97;9.98;;;;;;;10.28;77.94;100128.56;1677372;84;21474;-44
2020/12/31 09:26:57;;;;;;;23.57;10.38;;;;;;;10.29;77.94;100130.75;1669740;84;21606;-43
2020/12/31 09:29:27;;;;;;;20.43;10.08;;;;;;;10.26;77.97;100129.10;1665314;84;21193;-41
2020/12/31 09:31:54;;;;;;;17.45;10.38;;;;;;;10.28;77.97;100122.36;1661447;84;21191;-44
2020/12/31 09:34:22;;;;;;;16.70;9.95;;;;;;;10.26;77.97;100123.77;1666522;84;21986;-42
2020/12/31 09:36:49;;;;;;;15.60;9.53;;;;;;;10.25;77.95;100127.85;1665493;84;21169;-41
2020/12/31 09:39:17;;;;;;;17.25;9.90;;;;;;;10.24;77.89;100128.34;1664858;84;21177;-44
2020/12/31 09:41:47;;;;;;;19.23;10.15;;;;;;;10.24;77.80;100122.16;1658838;84;21145;-42
2020/12/31 09:44:14;;;;;;;21.60;10.13;;;;;;;10.23;77.73;100121.76;1669056;84;21129;-44
2020/12/31 09:46:42;;;;;;;16.52;9.60;;;;;;;10.20;77.75;100112.14;1668799;84;21189;-44
2020/12/31 09:49:09;;;;;;;16.20;10.18;;;;;;;10.18;77.70;100116.26;1664185;84;21232;-43
2020/12/31 09:51:37;;;;;;;16.90;10.23;;;;;;;10.22;77.70;100122.72;1665134;84;21157;-41
2020/12/31 09:54:04;;;;;;;17.15;9.30;;;;;;;10.23;77.58;100113.31;1668969;84;21173;-44
2020/12/31 09:56:32;;;;;;;17.55;11.15;;;;;;;10.23;77.59;100113.31;1663386;84;21597;-43
2020/12/31 09:58:59;;;;;;;20.48;12.50;;;;;;;10.26;77.55;100109.59;1663207;84;21153;-43
2020/12/31 10:01:28;;;;;;;20.75;11.00;;;;;;;10.26;77.48;100112.27;1667536;84;21721;-40
2020/12/31 10:03:56;;;;;;;19.48;10.15;;;;;;;10.24;77.49;100113.67;1671522;84;21177;-39
2020/12/31 10:06:23;;;;;;;15.98;10.88;;;;;;;10.19;77.54;100107.30;1673656;84;21149;-39
2020/12/31 10:08:51;;;;;;;18.70;9.93;;;;;;;10.17;77.62;100109.68;1666110;84;21541;-41
2020/12/31 10:11:19;;;;;;;16.62;10.63;;;;;;;10.16;77.73;100111.50;1668082;84;21575;-43
2020/12/31 10:13:47;;;;;;;21.65;10.35;;;;;;;10.15;77.82;100111.58;1678260;84;21206;-41
2020/12/31 10:16:14;;;;;;;16.93;11.10;;;;;;;10.14;77.96;100109.88;1671654;84;21820;-41
2020/12/31 10:18:42;;;;;;;16.97;9.93;;;;;;;10.14;78.07;100117.39;1670476;84;21189;-40
2020/12/31 10:21:09;;;;;;;19.40;10.65;;;;;;;10.14;78.07;100109.39;1666138;84;21178;-40
2020/12/31 10:23:37;;;;;;;15.38;10.35;;;;;;;10.16;78.09;100102.17;1672461;84;21559;-42
2020/12/31 10:26:08;;;;;;;15.20;9.40;;;;;;;10.17;78.09;100093.21;1672949;84;21170;-41
2020/12/31 10:28:36;;;;;;;16.73;10.25;;;;;;;10.17;78.09;100085.22;1669874;84;21161;-40
2020/12/31 10:31:03;;;;;;;17.12;10.35;;;;;;;10.16;77.97;100080.85;1674927;84;21585;-40
2020/12/31 10:33:31;;;;;;;15.23;10.13;;;;;;;10.16;77.86;100076.86;1670453;84;21473;-43
2020/12/31 10:35:59;;;;;;;18.12;10.30;;;;;;;10.12;77.80;100079.33;1673165;84;21177;-43
2020/12/31 10:38:26;;;;;;;17.25;9.95;;;;;;;10.11;77.78;100075.44;1684087;84;21170;-42
2020/12/31 10:40:54;;;;;;;14.07;9.00;;;;;;;10.10;77.74;100069.72;1676696;84;21204;-43
2020/12/31 10:43:21;;;;;;;16.95;9.38;;;;;;;10.09;77.75;100076.02;1670122;84;21181;-42
2020/12/31 10:45:49;;;;;;;17.30;9.60;;;;;;;10.08;77.65;100074.28;1675192;84;21161;-39
2020/12/31 10:48:16;;;;;;;18.40;10.68;;;;;;;10.04;77.74;100065.64;1686099;84;21153;-39
2020/12/31 10:50:44;;;;;;;22.15;10.15;;;;;;;10.01;77.75;100064.50;1668527;84;21149;-40
2020/12/31 10:53:11;;;;;;;17.25;10.95;;;;;;;10.01;77.68;100067.17;1672713;84;21222;-42
2020/12/31 10:55:39;;;;;;;17.37;10.65;;;;;;;9.99;77.71;100071.73;1668592;84;21665;-44
2020/12/31 10:58:06;;;;;;;15.75;9.18;;;;;;;9.99;77.78;100074.87;1675102;84;21125;-43
2020/12/31 11:00:34;;;;;;;15.32;10.05;;;;;;;9.96;77.78;100073.26;1671518;84;21624;-40
2020/12/31 11:03:01;;;;;;;13.75;9.08;;;;;;;9.95;77.82;100069.75;1669531;84;21162;-40
2020/12/31 11:05:29;;;;;;;16.85;10.40;;;;;;;10.00;77.79;100069.91;1670132;84;21177;-40
2020/12/31 11:07:56;;;;;;;12.90;9.73;;;;;;;9.99;77.70;100067.73;1666026;84;21166;-41
2020/12/31 11:10:24;;;;;;;15.32;9.78;;;;;;;10.00;77.68;100065.44;1663512;84;21190;-44
2020/12/31 11:12:52;;;;;;;17.45;10.53;;;;;;;9.98;77.65;100066.03;1664061;84;22059;-43
2020/12/31 11:15:19;;;;;;;15.23;9.75;;;;;;;9.94;77.69;100064.02;1659034;84;21558;-40
2020/12/31 11:17:47;;;;;;;13.88;10.23;;;;;;;9.92;77.73;100063.73;1708346;82;21157;-41
2020/12/31 11:20:20;;;;;;;14.68;10.20;;;;;;;9.89;77.70;100063.93;1703137;82;21154;-40
2020/12/31 11:22:57;;;;;;;14.28;9.10;;;;;;;9.86;77.73;100063.65;1696083;82;21170;-41
2020/12/31 11:25:28;;;;;;;14.98;9.83;;;;;;;9.87;77.70;100064.50;1670811;84;21311;-41
2020/12/31 11:27:55;;;;;;;13.13;9.05;;;;;;;9.86;77.73;100065.46;1666838;84;22153;-42
2020/12/31 11:30:23;;;;;;;12.82;8.53;;;;;;;9.85;77.70;100061.06;1666382;84;21142;-46